Valenciennes-Denain Airfield

LFAV · Nord-Pas-de-Calais-Picardie, France

6 octobre 2022

Temps Code Temps Temp. Vue Base cloud Vent METAR/SPECI
08:55
V
10 °C 10 km+ - 220° 220° 6 kt METAR EBCV 060655Z AUTO 22006KT 9999 NCD 10/09 Q1029 BLU
08:25
V
9 °C 10 km+ - 220° 220° 6 kt METAR EBCV 060625Z AUTO 22006KT 9999 NCD 09/08 Q1029 BLU
07:55
V
8 °C 10 km+ - 210° 210° 6 kt METAR EBCV 060555Z AUTO 21006KT 9999 NCD 08/07 Q1029 BLU
07:25
V
8 °C 10 km+ - 210° 210° 6 kt METAR EBCV 060525Z AUTO 21006KT 9999 NCD 08/07 Q1028 BLU
06:55
V
9 °C 10 km+ - 220° 220° 6 kt METAR EBCV 060455Z AUTO 22006KT 9999 NCD 09/08 Q1028 BLU
06:25
V
9 °C 10 km+ - 220° 220° 7 kt METAR EBCV 060425Z AUTO 22007KT 9999 NCD 09/08 Q1027 BLU
05:55
V
9 °C 10 km+ - 220° 220° 6 kt METAR EBCV 060355Z AUTO 22006KT 9999 NCD 09/08 Q1027 BLU
05:25
V
10 °C 10 km+ - 220° 220° 6 kt METAR EBCV 060325Z AUTO 22006KT 9999 NCD 10/08 Q1027 BLU
05:24
V
10 °C 10 km+ - 220° 220° 6 kt METAR EBCV 060324Z AUTO 22006KT 9999 NCD 10/08 Q1027 BLU
05:13
M
10 °C 7 km - 230° 230° 6 kt METAR EBCV 060313Z AUTO 23006KT 7000 NCD 10/08 Q1027 WHT
04:55
V
11 °C 10 km+ - 230° 230° 6 kt METAR EBCV 060255Z AUTO 23006KT 9999 NCD 11/09 Q1026 BLU
04:25
V
11 °C 10 km+ - 220° 220° 7 kt METAR EBCV 060225Z AUTO 22007KT 9999 NCD 11/09 Q1026 BLU
03:55
V
11 °C 10 km+ - 220° 220° 5 kt METAR EBCV 060155Z AUTO 22005KT 9999 NCD 11/09 Q1026 BLU
03:25
V
11 °C 10 km+ - 220° 220° 6 kt METAR EBCV 060125Z AUTO 22006KT 9999 SCT230/// 11/09 Q1025 BLU
02:55
V
12 °C 10 km+ - 250° 250° 4 kt METAR EBCV 060055Z AUTO 25004KT 9999 NCD 12/09 Q1025 BLU
02:25
V
13 °C 10 km+ - 240° 240° 7 kt METAR EBCV 060025Z AUTO 24007KT 9999 FEW036/// 13/09 Q1025 BLU
01:55
V
13 °C 10 km+ - 240° 240° 7 kt METAR EBCV 052355Z AUTO 24007KT 9999 NCD 13/09 Q1024 BLU
01:25
V
14 °C 10 km+ - 250° 250° 9 kt METAR EBCV 052325Z AUTO 25009KT 9999 FEW033/// 14/10 Q1024 BLU
00:55
V
15 °C 10 km+ 6.100 ft 250° 250° 10 kt METAR EBCV 052255Z AUTO 25010KT 9999 BKN061/// 15/11 Q1023 BLU
00:25
V
15 °C 10 km+ - 250° 250° 9 kt METAR EBCV 052225Z AUTO 25009KT 9999 SCT068/// 15/11 Q1023 BLU

5 octobre 2022

Temps Code Temps Temp. Vue Base cloud Vent METAR/SPECI
23:55
V
15 °C 10 km+ - 250° 250° 10 kt METAR EBCV 052155Z AUTO 25010KT 9999 SCT084/// 15/11 Q1022 BLU
23:25
V
15 °C 10 km+ 4.100 ft 260° 260° 11 kt METAR EBCV 052125Z AUTO 26011KT 9999 BKN041/// OVC079/// 15/11 Q1021 BLU
22:55
V
16 °C 10 km+ 5.700 ft 250° 250° 11 - 22 kt METAR EBCV 052055Z AUTO 25011G22KT 9999 SCT020/// BKN057/// 16/13 Q1021 WHT
22:54
V
16 °C 10 km+ 5.700 ft 250° 250° 9 kt METAR EBCV 052054Z AUTO 25009KT 9999 SCT020/// BKN057/// 16/13 Q1021 WHT
22:25
V
16 °C 10 km+ 5.700 ft 250° 250° 10 kt METAR EBCV 052025Z AUTO 25010KT 9999 FEW022/// OVC057/// 16/13 Q1020 BLU
21:55
V
16 °C 10 km+ 5.000 ft 240° 240° 12 kt METAR EBCV 051955Z AUTO 24012KT 9999 OVC050/// 16/12 Q1019 BLU
21:25
V
17 °C 10 km+ 3.500 ft 250° 250° 11 kt METAR EBCV 051925Z AUTO 25011KT 9999 OVC035/// 17/12 Q1019 BLU
20:55
M
17 °C 10 km+ 2.900 ft 230° 230° 17 kt METAR EBCV 051855Z AUTO 23017KT 9999 -RA OVC029/// 17/14 Q1018 BLU
20:25
V
18 °C 10 km+ 3.000 ft 210° 210° 12 kt METAR EBCV 051825Z AUTO 21012KT 9999 OVC030/// 18/13 Q1017 BLU
19:55
V
18 °C 10 km+ 3.500 ft 210° 210° 14 kt METAR EBCV 051755Z AUTO 21014KT 9999 OVC035/// 18/13 Q1017 BLU
19:25
V
18 °C 10 km+ 3.400 ft 210° 210° 13 kt METAR EBCV 051725Z AUTO 21013KT 9999 OVC034/// 18/13 Q1016 BLU
18:55
V
18 °C 10 km+ 3.500 ft 200° 200° 11 kt METAR EBCV 051655Z AUTO 20011KT 9999 OVC035/// 18/13 Q1016 BLU
18:25
V
18 °C 10 km+ 3.300 ft 200° 200° 12 kt METAR EBCV 051625Z AUTO 20012KT 9999 OVC033/// 18/13 Q1016 BLU
17:55
V
18 °C 10 km+ 3.500 ft 200° 200° 12 kt METAR EBCV 051555Z AUTO 20012KT 9999 OVC035/// 18/13 Q1015 BLU
17:25
V
18 °C 10 km+ 3.800 ft 200° 200° 13 kt METAR EBCV 051525Z AUTO 20013KT 9999 OVC038/// 18/13 Q1015 BLU
16:55
V
18 °C 10 km+ 4.000 ft 210° 210° 17 kt METAR EBCV 051455Z AUTO 21017KT 9999 BKN040/// 18/12 Q1015 BLU
16:25
V
18 °C 10 km+ 3.800 ft 210° 210° 16 kt METAR EBCV 051425Z AUTO 21016KT 9999 BKN038/// 18/12 Q1015 BLU
15:55
V
17 °C 10 km+ 3.100 ft 210° 210° 14 kt METAR EBCV 051355Z AUTO 21014KT 9999 OVC031/// 17/12 Q1015 BLU
15:25
M
17 °C 10 km+ 2.800 ft 220° 220° 16 - 26 kt METAR EBCV 051325Z AUTO 22016G26KT 9999 OVC028/// 17/12 Q1015 BLU
14:55
M
17 °C 10 km+ 2.900 ft 220° 220° 21 kt METAR EBCV 051255Z AUTO 22021KT 9999 OVC029/// 17/11 Q1015 BLU
13:55
M
18 °C 10 km+ 2.600 ft 220° 220° 18 kt METAR EBCV 051155Z AUTO 22018KT 9999 BKN026/// 18/13 Q1015 BLU
13:43
M
18 °C 10 km+ 2.600 ft 220° 220° 19 kt METAR EBCV 051143Z AUTO 22019KT 9999 BKN026/// 18/13 Q1015 BLU
13:25
M
18 °C 10 km+ 2.400 ft 210° 210° 22 kt METAR EBCV 051125Z AUTO 21022KT 9999 BKN024/// 18/13 Q1015 WHT
12:55
M
18 °C 10 km+ 2.400 ft 210° 210° 16 kt METAR EBCV 051055Z AUTO 21016KT 9999 BKN024/// 18/13 Q1015 WHT
12:25
M
18 °C 10 km+ 2.200 ft 200° 200° 19 kt METAR EBCV 051025Z AUTO 20019KT 9999 BKN022/// 18/13 Q1015 WHT
12:09
M
18 °C 10 km+ 2.200 ft 200° 200° 17 kt METAR EBCV 051009Z AUTO 20017KT 9999 BKN022/// 18/13 Q1015 WHT
11:55
V
17 °C 10 km+ 3.300 ft 200° 200° 16 kt METAR EBCV 050955Z AUTO 20016KT 9999 BKN033/// 17/13 Q1015 BLU
11:25
V
16 °C 10 km+ 3.300 ft 200° 200° 15 kt METAR EBCV 050925Z AUTO 20015KT 9999 OVC033/// 16/13 Q1016 BLU
10:55
V
16 °C 10 km+ 3.300 ft 200° 200° 15 kt METAR EBCV 050855Z AUTO 20015KT 9999 OVC033/// 16/13 Q1016 BLU
10:25
V
16 °C 10 km+ 3.400 ft 210° 210° 14 kt METAR EBCV 050825Z AUTO 21014KT 9999 OVC034/// 16/12 Q1016 BLU
09:55
V
15 °C 10 km+ 3.500 ft 210° 210° 14 kt METAR EBCV 050755Z AUTO 21014KT 9999 OVC035/// 15/12 Q1016 BLU
09:25
V
15 °C 10 km+ 3.400 ft 200° 200° 12 kt METAR EBCV 050725Z AUTO 20012KT 9999 OVC034/// 15/12 Q1016 BLU
08:55
V
15 °C 10 km+ 3.400 ft 200° 200° 13 kt METAR EBCV 050655Z AUTO 20013KT 9999 OVC034/// 15/12 Q1016 BLU
08:25
V
15 °C 10 km+ 3.300 ft 200° 200° 12 kt METAR EBCV 050625Z AUTO 20012KT 9999 OVC033/// 15/12 Q1016 BLU
07:55
V
15 °C 10 km+ 3.200 ft 210° 210° 13 kt METAR EBCV 050555Z AUTO 21013KT 9999 OVC032/// 15/11 Q1016 BLU
07:25
V
15 °C 10 km+ 3.100 ft 200° 200° 11 kt METAR EBCV 050525Z AUTO 20011KT 9999 OVC031/// 15/11 Q1016 BLU
06:55
V
15 °C 10 km+ 3.100 ft 200° 200° 11 kt METAR EBCV 050455Z AUTO 20011KT 9999 OVC031/// 15/11 Q1016 BLU
06:25
V
14 °C 10 km+ 3.200 ft 190° 190° 9 kt METAR EBCV 050425Z AUTO 19009KT 9999 OVC032/// 14/12 Q1016 BLU
05:55
V
14 °C 10 km+ 3.000 ft 190° 190° 9 kt METAR EBCV 050355Z AUTO 19009KT 9999 OVC030/// 14/11 Q1016 BLU
05:25
M
14 °C 10 km+ 2.700 ft 200° 200° 10 kt METAR EBCV 050325Z AUTO 20010KT 9999 OVC027/// 14/11 Q1017 BLU
04:55
M
14 °C 10 km+ 2.900 ft 200° 200° 10 kt METAR EBCV 050255Z AUTO 20010KT 9999 OVC029/// 14/12 Q1017 BLU
04:25
M
14 °C 10 km+ 2.900 ft 200° 200° 8 kt METAR EBCV 050225Z AUTO 20008KT 9999 OVC029/// 14/12 Q1017 BLU
03:55
M
14 °C 10 km+ 2.900 ft 200° 200° 9 kt METAR EBCV 050155Z AUTO 20009KT 9999 BKN029/// 14/12 Q1018 BLU
03:25
V
14 °C 10 km+ 3.000 ft 200° 200° 9 kt METAR EBCV 050125Z AUTO 20009KT 9999 BKN030/// 14/12 Q1018 BLU
02:55
M
14 °C 10 km+ 2.900 ft 190° 190° 8 kt METAR EBCV 050055Z AUTO 19008KT 9999 OVC029/// 14/12 Q1018 BLU
02:25
V
14 °C 10 km+ 3.100 ft 210° 210° 7 kt METAR EBCV 050025Z AUTO 21007KT 9999 OVC031/// 14/12 Q1018 BLU
01:55
V
15 °C 10 km+ 3.100 ft 210° 210° 8 kt METAR EBCV 042355Z AUTO 21008KT 9999 OVC031/// 15/12 Q1018 BLU
01:25
V
15 °C 10 km+ 3.200 ft 210° 210° 7 kt METAR EBCV 042325Z AUTO 21007KT 9999 OVC032/// 15/12 Q1019 BLU
00:55
V
15 °C 10 km+ 3.300 ft 210° 210° 8 kt METAR EBCV 042255Z AUTO 21008KT 9999 OVC033/// 15/12 Q1019 BLU
00:25
V
15 °C 10 km+ 3.500 ft 200° 200° 8 kt METAR EBCV 042225Z AUTO 20008KT 9999 OVC035/// 15/12 Q1019 BLU

4 octobre 2022

Temps Code Temps Temp. Vue Base cloud Vent METAR/SPECI
23:55
V
15 °C 10 km+ 3.300 ft 190° 190° 8 kt METAR EBCV 042155Z AUTO 19008KT 9999 OVC033/// 15/12 Q1019 BLU
23:25
V
15 °C 10 km+ 3.200 ft 190° 190° 6 kt METAR EBCV 042125Z AUTO 19006KT 9999 OVC032/// 15/12 Q1019 BLU
22:55
V
15 °C 10 km+ 3.300 ft 190° 190° 6 kt METAR EBCV 042055Z AUTO 19006KT 9999 OVC033/// 15/12 Q1019 BLU
22:25
V
15 °C 10 km+ 3.400 ft 180° 180° 6 kt METAR EBCV 042025Z AUTO 18006KT 9999 OVC034/// 15/12 Q1019 BLU
21:55
V
15 °C 10 km+ 3.500 ft 180° 180° 7 kt METAR EBCV 041955Z AUTO 18007KT 9999 OVC035/// 15/12 Q1019 BLU
21:25
V
14 °C 10 km+ 3.600 ft 180° 180° 6 kt METAR EBCV 041925Z AUTO 18006KT 9999 BKN036/// 14/12 Q1019 BLU
20:55
V
14 °C 10 km+ 3.200 ft 180° 180° 6 kt METAR EBCV 041855Z AUTO 18006KT 9999 BKN032/// 14/12 Q1019 BLU
20:25
V
15 °C 10 km+ 3.400 ft 170° 170° 7 kt METAR EBCV 041825Z AUTO 17007KT 9999 OVC034/// 15/12 Q1019 BLU
19:55
V
15 °C 10 km+ 3.500 ft 180° 180° 5 kt METAR EBCV 041755Z AUTO 18005KT 9999 BKN035/// 15/12 Q1019 BLU
19:25
V
14 °C 10 km+ - 170° 170° 5 kt METAR EBCV 041725Z AUTO 17005KT 9999 NCD 14/12 Q1019 BLU
18:55
V
15 °C 10 km+ - 200° 200° 8 kt METAR EBCV 041655Z AUTO 20008KT 9999 NCD 15/12 Q1019 BLU
18:25
V
16 °C 10 km+ - 190° 190° 8 kt METAR EBCV 041625Z AUTO 19008KT 9999 NCD 16/12 Q1019 BLU
17:55
V
17 °C 10 km+ - 190° 190° 9 kt METAR EBCV 041555Z AUTO 19009KT 9999 NCD 17/12 Q1019 BLU
17:25
V
17 °C 10 km+ - 200° 200° 10 kt METAR EBCV 041525Z AUTO 20010KT 9999 NCD 17/12 Q1019 BLU
16:55
V
18 °C 10 km+ - 200° 200° 12 kt METAR EBCV 041455Z AUTO 20012KT 9999 NCD 18/12 Q1019 BLU
16:25
V
18 °C 10 km+ - 190° 190° 11 kt METAR EBCV 041425Z AUTO 19011KT 9999 NCD 18/12 Q1019 BLU
15:55
V
18 °C 10 km+ - 200° 200° 11 kt METAR EBCV 041355Z AUTO 20011KT 9999 NCD 18/11 Q1020 BLU
15:25
V
18 °C 10 km+ - 200° 200° 10 kt METAR EBCV 041325Z AUTO 20010KT 9999 NCD 18/12 Q1020 BLU
14:55
V
18 °C 10 km+ - 220° 220° 12 kt METAR EBCV 041255Z AUTO 22012KT 9999 NCD 18/11 Q1020 BLU
14:25
V
17 °C 10 km+ - 210° 210° 11 kt METAR EBCV 041225Z AUTO 21011KT 9999 NCD 17/12 Q1020 BLU
13:55
V
17 °C 10 km+ - 210° 210° 11 kt METAR EBCV 041155Z AUTO 21011KT 9999 NCD 17/11 Q1020 BLU
13:25
V
16 °C 10 km+ - 210° 210° 11 kt METAR EBCV 041125Z AUTO 21011KT 9999 NCD 16/12 Q1020 BLU
12:55
V
16 °C 10 km+ - 210° 210° 10 kt METAR EBCV 041055Z AUTO 21010KT 9999 SCT240/// 16/12 Q1021 BLU
12:25
V
16 °C 10 km+ - 200° 200° 11 kt METAR EBCV 041025Z AUTO 20011KT 9999 FEW240/// 16/12 Q1021 BLU
11:55
V
15 °C 10 km+ - 210° 210° 11 kt METAR EBCV 040955Z AUTO 21011KT 9999 NCD 15/11 Q1021 BLU
11:25
V
14 °C 10 km+ - 190° 190° 9 kt METAR EBCV 040925Z AUTO 19009KT 9999 SCT240/// 14/11 Q1021 BLU
10:25
V
11 °C 10 km+ - 190° 190° 7 kt METAR EBCV 040825Z AUTO 19007KT 9999 NCD 11/10 Q1021 BLU
09:55
V
10 °C 10 km+ - 190° 190° 7 kt METAR EBCV 040755Z AUTO 19007KT 9999 NCD 10/09 Q1021 BLU
09:25
V
10 °C 10 km+ - 180° 180° 6 kt METAR EBCV 040725Z AUTO 18006KT 9999 NCD 10/09 Q1021 BLU
Données plus anciennes

Nous et des tiers suivons ton comportement sur Internet sur notre site Web à l'aide de cookies. Si tu continues, nous supposons que tu acceptes notre politique en matière de cookies. Apprendre plus